createdAt,value
2022-11-10T00:01:19.533Z,100.00
2022-11-10T00:04:06.259Z,100.00
2022-11-10T00:06:52.741Z,100.00
2022-11-10T00:09:39.797Z,100.00
2022-11-10T00:12:26.430Z,100.00
2022-11-10T00:15:31.722Z,100.00
2022-11-10T00:18:18.630Z,100.00
2022-11-10T00:21:06.902Z,100.00
2022-11-10T00:23:53.277Z,100.00
2022-11-10T00:26:39.902Z,100.00
2022-11-10T00:29:26.614Z,100.00
2022-11-10T00:32:14.300Z,100.00
2022-11-10T00:35:01.099Z,100.00
2022-11-10T00:37:50.331Z,100.00
2022-11-10T00:40:36.983Z,100.00
2022-11-10T00:43:26.487Z,100.00
2022-11-10T00:46:13.746Z,100.00
2022-11-10T00:49:01.556Z,100.00
2022-11-10T00:51:48.404Z,100.00
2022-11-10T00:54:34.916Z,100.00
2022-11-10T00:57:21.706Z,99.86
2022-11-10T01:00:11.311Z,100.00
2022-11-10T01:02:57.794Z,100.00
2022-11-10T01:05:46.104Z,100.00
2022-11-10T01:08:32.919Z,100.00
2022-11-10T01:11:21.850Z,100.00
2022-11-10T01:14:08.268Z,100.00
2022-11-10T01:16:54.716Z,100.00
2022-11-10T01:19:42.953Z,100.00
2022-11-10T01:22:31.669Z,100.00
2022-11-10T01:25:18.028Z,100.00
2022-11-10T01:28:04.731Z,100.00
2022-11-10T01:30:51.663Z,100.00
2022-11-10T01:33:38.431Z,100.00
2022-11-10T01:36:25.198Z,100.00
2022-11-10T01:39:13.104Z,100.00
2022-11-10T01:41:59.525Z,100.00
2022-11-10T01:45:33.741Z,100.00
2022-11-10T01:48:25.824Z,100.00
2022-11-10T01:51:17.923Z,100.00
2022-11-10T01:54:08.139Z,100.00
2022-11-10T01:56:58.035Z,100.00
2022-11-10T01:59:47.708Z,100.00
2022-11-10T02:02:37.679Z,100.00
2022-11-10T02:05:24.836Z,100.00
2022-11-10T02:08:12.968Z,99.80
2022-11-10T02:10:59.417Z,99.04
2022-11-10T02:13:47.067Z,99.68
2022-11-10T02:16:34.156Z,98.45
2022-11-10T02:19:23.516Z,98.82
2022-11-10T02:22:11.705Z,98.53
2022-11-10T02:24:58.481Z,97.61
2022-11-10T02:27:44.764Z,99.14
2022-11-10T02:30:31.703Z,98.06
2022-11-10T02:33:18.739Z,98.65
2022-11-10T02:36:06.229Z,98.46
2022-11-10T02:38:54.455Z,98.30
2022-11-10T02:41:41.192Z,97.78
2022-11-10T02:44:27.603Z,97.38
2022-11-10T02:47:14.051Z,96.92
2022-11-10T02:50:00.820Z,96.21
2022-11-10T02:52:47.482Z,95.79
2022-11-10T02:55:35.770Z,95.82
2022-11-10T02:58:22.771Z,95.69
2022-11-10T03:01:09.535Z,95.03
2022-11-10T03:03:56.208Z,95.29
2022-11-10T03:06:43.023Z,94.80
2022-11-10T03:09:29.671Z,94.97
2022-11-10T03:12:17.549Z,94.78
2022-11-10T03:15:03.988Z,94.13
2022-11-10T03:17:50.711Z,94.71
2022-11-10T03:20:37.303Z,94.41
2022-11-10T03:23:24.628Z,94.29
2022-11-10T03:26:11.624Z,94.58
2022-11-10T03:28:59.368Z,94.11
2022-11-10T03:31:46.156Z,93.45
2022-11-10T03:34:32.827Z,93.15
2022-11-10T03:37:19.248Z,93.89
2022-11-10T03:40:06.358Z,92.97
2022-11-10T03:42:52.875Z,93.60
2022-11-10T03:45:40.708Z,92.85
2022-11-10T03:48:27.346Z,92.91
2022-11-10T03:51:14.208Z,92.76
2022-11-10T03:54:00.672Z,93.17
2022-11-10T03:56:47.058Z,92.98
2022-11-10T03:59:33.879Z,93.38
2022-11-10T04:02:21.804Z,92.98
2022-11-10T04:05:27.343Z,93.52
2022-11-10T04:08:35.074Z,93.03
2022-11-10T04:11:35.982Z,93.63
2022-11-10T04:14:39.998Z,93.62
2022-11-10T04:17:27.785Z,93.58
2022-11-10T04:20:14.402Z,94.39
2022-11-10T04:23:18.761Z,93.87
2022-11-10T04:26:29.975Z,94.18
2022-11-10T04:29:18.773Z,93.90
2022-11-10T04:32:05.722Z,94.61
2022-11-10T04:34:54.009Z,93.90
2022-11-10T04:37:40.479Z,94.34
2022-11-10T04:40:27.052Z,94.49
2022-11-10T04:43:13.326Z,94.23
2022-11-10T04:46:00.264Z,93.90
2022-11-10T04:48:46.725Z,93.81
2022-11-10T04:51:36.336Z,93.93
2022-11-10T04:54:23.075Z,94.25
2022-11-10T04:57:09.659Z,94.11
2022-11-10T04:59:56.453Z,94.11
2022-11-10T05:02:42.721Z,94.20
2022-11-10T05:05:29.416Z,94.62
2022-11-10T05:09:01.095Z,94.49
2022-11-10T05:11:47.470Z,94.35
2022-11-10T05:14:33.984Z,94.23
2022-11-10T05:17:20.766Z,94.71
2022-11-10T05:20:08.725Z,95.60
2022-11-10T05:23:13.486Z,96.37
2022-11-10T05:26:01.304Z,97.50
2022-11-10T05:28:48.146Z,97.45
2022-11-10T05:31:34.941Z,97.34
2022-11-10T05:34:21.340Z,96.83
2022-11-10T05:37:07.998Z,95.97
2022-11-10T05:39:54.445Z,96.13
2022-11-10T05:42:45.564Z,95.72
2022-11-10T05:45:32.405Z,94.48
2022-11-10T05:48:19.097Z,94.36
2022-11-10T05:51:05.991Z,94.34
2022-11-10T05:53:52.623Z,93.62
2022-11-10T05:56:39.190Z,93.23
2022-11-10T05:59:28.033Z,93.12
2022-11-10T06:02:14.896Z,92.78
2022-11-10T06:05:01.647Z,92.32
2022-11-10T06:07:47.980Z,92.71
2022-11-10T06:10:35.327Z,92.21
2022-11-10T06:13:22.259Z,91.75
2022-11-10T06:16:10.656Z,90.89
2022-11-10T06:18:57.403Z,90.49
2022-11-10T06:21:43.953Z,91.46
2022-11-10T06:24:30.338Z,91.98
2022-11-10T06:27:16.977Z,92.76
2022-11-10T06:30:04.199Z,92.80
2022-11-10T06:32:51.902Z,93.58
2022-11-10T06:35:38.515Z,93.16
2022-11-10T06:38:25.361Z,92.84
2022-11-10T06:41:11.716Z,92.43
2022-11-10T06:43:58.369Z,93.55
2022-11-10T06:46:44.939Z,93.41
2022-11-10T06:49:32.674Z,93.28
2022-11-10T06:52:19.107Z,92.57
2022-11-10T06:55:06.945Z,92.43
2022-11-10T06:57:54.328Z,93.51
2022-11-10T07:00:41.041Z,93.41
2022-11-10T07:03:27.452Z,93.60
2022-11-10T07:06:15.109Z,93.14
2022-11-10T07:09:01.594Z,93.49
2022-11-10T07:11:48.482Z,93.90
2022-11-10T07:14:35.290Z,95.77
2022-11-10T07:17:22.239Z,96.99
2022-11-10T07:20:10.306Z,96.98
2022-11-10T07:23:00.446Z,95.88
2022-11-10T07:25:50.503Z,96.34
2022-11-10T07:28:37.027Z,95.47
2022-11-10T07:31:23.592Z,95.25
2022-11-10T07:34:10.908Z,94.99
2022-11-10T07:36:57.717Z,95.12
2022-11-10T07:39:45.424Z,95.34
2022-11-10T07:42:32.081Z,96.34
2022-11-10T07:45:18.833Z,95.62
2022-11-10T07:48:07.019Z,98.16
2022-11-10T07:50:53.796Z,97.19
2022-11-10T07:53:41.493Z,97.56
2022-11-10T07:56:29.761Z,97.81
2022-11-10T07:59:16.251Z,97.49
2022-11-10T08:02:02.914Z,97.41
2022-11-10T08:04:49.710Z,97.28
2022-11-10T08:07:36.563Z,98.72
2022-11-10T08:10:23.225Z,97.42
2022-11-10T08:13:12.587Z,98.27
2022-11-10T08:15:59.543Z,98.00
2022-11-10T08:18:46.230Z,97.14
2022-11-10T08:21:33.086Z,98.48
2022-11-10T08:24:19.508Z,99.30
2022-11-10T08:27:06.361Z,99.00
2022-11-10T08:29:54.230Z,98.74
2022-11-10T08:32:40.931Z,99.35
2022-11-10T08:35:28.845Z,99.62
2022-11-10T08:38:16.849Z,99.27
2022-11-10T08:41:03.794Z,100.00
2022-11-10T08:43:50.366Z,100.00
2022-11-10T08:46:38.221Z,99.55
2022-11-10T08:49:24.875Z,100.00
2022-11-10T08:52:11.260Z,100.00
2022-11-10T08:54:57.854Z,100.00
2022-11-10T08:57:44.681Z,99.26
2022-11-10T09:00:32.119Z,99.23
2022-11-10T09:03:22.343Z,97.46
2022-11-10T09:06:09.286Z,98.50
2022-11-10T09:08:56.008Z,99.30
2022-11-10T09:11:42.412Z,98.59
2022-11-10T09:14:57.518Z,98.51
2022-11-10T09:17:45.252Z,98.71
2022-11-10T09:20:34.335Z,96.72
2022-11-10T09:23:22.357Z,95.89
2022-11-10T09:26:09.215Z,95.58
2022-11-10T09:28:55.577Z,95.30
2022-11-10T09:31:44.723Z,94.80
2022-11-10T09:34:31.093Z,94.27
2022-11-10T09:37:19.204Z,94.08
2022-11-10T09:40:10.417Z,93.52
2022-11-10T09:43:00.969Z,93.94
2022-11-10T09:45:48.497Z,94.41
2022-11-10T09:48:37.932Z,93.52
2022-11-10T09:51:26.579Z,93.73
2022-11-10T09:54:27.175Z,93.54
2022-11-10T09:57:15.478Z,93.28
2022-11-10T10:00:02.208Z,92.33
2022-11-10T10:02:52.137Z,91.92
2022-11-10T10:05:54.852Z,90.99
2022-11-10T10:08:49.205Z,91.19
2022-11-10T10:11:50.192Z,91.82
2022-11-10T10:15:03.255Z,88.84
2022-11-10T10:17:56.867Z,86.03
2022-11-10T10:20:49.775Z,85.26
2022-11-10T10:26:48.755Z,84.96
2022-11-10T10:29:39.746Z,85.32
2022-11-10T10:32:27.840Z,85.63
2022-11-10T10:35:15.483Z,86.11
2022-11-10T10:38:03.377Z,84.84
2022-11-10T10:40:52.312Z,82.94
2022-11-10T10:43:40.517Z,84.82
2022-11-10T10:46:32.871Z,85.27
2022-11-10T10:49:31.329Z,84.99
2022-11-10T10:52:24.725Z,85.04
2022-11-10T10:55:13.429Z,84.85
2022-11-10T10:58:01.807Z,83.06
2022-11-10T11:00:51.668Z,82.84
2022-11-10T11:03:44.262Z,83.92
2022-11-10T11:06:31.776Z,82.98
2022-11-10T11:09:20.980Z,82.68
2022-11-10T11:12:09.083Z,78.70
2022-11-10T11:15:12.354Z,79.82
2022-11-10T11:18:02.490Z,79.67
2022-11-10T11:20:54.037Z,76.39
2022-11-10T11:24:00.608Z,77.02
2022-11-10T11:26:54.354Z,77.15
2022-11-10T11:30:06.655Z,74.41
2022-11-10T11:33:13.273Z,76.03
2022-11-10T11:36:04.696Z,75.59
2022-11-10T11:38:55.939Z,77.50
2022-11-10T11:41:50.045Z,76.34
2022-11-10T11:44:46.565Z,76.18
2022-11-10T11:47:41.859Z,77.43
2022-11-10T11:50:31.554Z,77.28
2022-11-10T11:53:29.863Z,76.88
2022-11-10T11:56:22.653Z,74.97
2022-11-10T11:59:25.097Z,75.80
2022-11-10T12:02:25.436Z,76.10
2022-11-10T12:05:18.489Z,76.00
2022-11-10T12:08:16.627Z,75.18
2022-11-10T12:11:08.962Z,75.16
2022-11-10T12:14:01.313Z,75.82
2022-11-10T12:16:55.196Z,75.53
2022-11-10T12:19:50.869Z,77.11
2022-11-10T12:22:41.197Z,76.91
2022-11-10T12:25:32.417Z,75.13
2022-11-10T12:28:23.010Z,75.62
2022-11-10T12:31:14.806Z,73.39
2022-11-10T12:34:05.539Z,73.76
2022-11-10T12:36:52.997Z,69.41
2022-11-10T12:39:44.452Z,70.90
2022-11-10T12:42:33.928Z,70.71
2022-11-10T12:45:23.116Z,68.94
2022-11-10T12:48:11.142Z,68.25
2022-11-10T12:51:02.334Z,67.73
2022-11-10T12:53:49.275Z,68.47
2022-11-10T12:56:38.949Z,70.09
2022-11-10T12:59:30.589Z,70.07
2022-11-10T13:02:23.597Z,70.52
2022-11-10T13:05:12.758Z,71.36
2022-11-10T13:08:17.606Z,71.35
2022-11-10T13:11:39.934Z,72.96
2022-11-10T13:14:29.995Z,72.64
2022-11-10T13:17:55.826Z,73.88
2022-11-10T13:20:53.167Z,73.31
2022-11-10T13:24:22.448Z,72.57
2022-11-10T13:27:13.070Z,69.63
2022-11-10T13:30:01.185Z,69.92
2022-11-10T13:32:47.894Z,69.24
2022-11-10T13:35:55.338Z,71.17
2022-11-10T13:38:43.129Z,70.55
2022-11-10T13:41:31.374Z,71.72
2022-11-10T13:44:25.864Z,71.63
2022-11-10T13:47:49.681Z,70.74
2022-11-10T13:50:44.189Z,69.67
2022-11-10T13:53:37.477Z,70.02
2022-11-10T13:56:38.373Z,68.84
2022-11-10T13:59:26.996Z,71.72
2022-11-10T14:02:50.277Z,71.77
2022-11-10T14:06:04.833Z,70.61
2022-11-10T14:08:55.370Z,68.76
2022-11-10T14:11:48.684Z,68.77
2022-11-10T14:14:46.667Z,68.67
2022-11-10T14:17:35.775Z,68.79
2022-11-10T14:20:49.649Z,68.15
2022-11-10T14:23:43.689Z,69.47
2022-11-10T14:26:34.180Z,68.63
2022-11-10T14:29:29.021Z,68.40
2022-11-10T14:32:17.684Z,68.92
2022-11-10T14:35:31.164Z,68.51
2022-11-10T14:38:21.995Z,65.24
2022-11-10T14:41:17.382Z,63.30
2022-11-10T14:44:05.118Z,64.54
2022-11-10T14:46:52.044Z,63.90
2022-11-10T14:49:38.518Z,64.53
2022-11-10T14:52:25.173Z,65.67
2022-11-10T14:55:18.904Z,66.47
2022-11-10T14:58:34.407Z,65.54
2022-11-10T15:01:25.065Z,66.19
2022-11-10T15:04:12.897Z,67.12
2022-11-10T15:07:00.641Z,67.41
2022-11-10T15:10:03.851Z,67.55
2022-11-10T15:13:05.260Z,68.03
2022-11-10T15:15:53.582Z,68.17
2022-11-10T15:18:40.308Z,68.57
2022-11-10T15:21:30.476Z,68.96
2022-11-10T15:24:17.386Z,68.86
2022-11-10T15:27:03.804Z,69.29
2022-11-10T15:29:52.046Z,70.79
2022-11-10T15:32:43.379Z,71.08
2022-11-10T15:35:32.069Z,71.71
2022-11-10T15:38:31.507Z,71.91
2022-11-10T15:41:27.027Z,72.19
2022-11-10T15:44:19.208Z,72.67
2022-11-10T15:47:07.880Z,73.03
2022-11-10T15:49:55.268Z,73.20
2022-11-10T15:52:41.926Z,73.13
2022-11-10T15:55:29.722Z,73.37
2022-11-10T15:58:17.195Z,73.59
2022-11-10T16:01:04.642Z,73.92
2022-11-10T16:03:52.556Z,74.18
2022-11-10T16:06:39.949Z,74.40
2022-11-10T16:09:26.572Z,74.40
2022-11-10T16:12:21.022Z,74.80
2022-11-10T16:15:10.465Z,74.92
2022-11-10T16:17:57.131Z,75.07
2022-11-10T16:20:45.310Z,75.35
2022-11-10T16:23:32.103Z,75.41
2022-11-10T16:26:21.207Z,75.35
2022-11-10T16:29:12.430Z,75.58
2022-11-10T16:31:59.334Z,75.87
2022-11-10T16:34:46.209Z,75.90
2022-11-10T16:37:35.185Z,75.87
2022-11-10T16:40:23.461Z,76.10
2022-11-10T16:43:15.708Z,76.47
2022-11-10T16:46:18.150Z,76.68
2022-11-10T16:49:06.551Z,76.93
2022-11-10T16:51:53.284Z,77.86
2022-11-10T16:54:40.974Z,77.96
2022-11-10T16:57:27.582Z,78.31
2022-11-10T17:00:15.606Z,78.00
2022-11-10T17:03:03.386Z,77.96
2022-11-10T17:05:50.136Z,78.07
2022-11-10T17:08:36.782Z,77.81
2022-11-10T17:11:24.748Z,78.48
2022-11-10T17:14:12.468Z,78.49
2022-11-10T17:16:58.882Z,79.27
2022-11-10T17:19:46.653Z,78.63
2022-11-10T17:22:35.227Z,79.22
2022-11-10T17:25:25.942Z,78.27
2022-11-10T17:28:15.660Z,78.31
2022-11-10T17:31:03.235Z,79.92
2022-11-10T17:33:49.732Z,80.30
2022-11-10T17:36:36.248Z,80.46
2022-11-10T17:39:23.586Z,78.96
2022-11-10T17:42:12.287Z,79.23
2022-11-10T17:45:00.116Z,79.39
2022-11-10T17:47:46.608Z,78.96
2022-11-10T17:50:35.799Z,78.91
2022-11-10T17:53:24.255Z,79.12
2022-11-10T17:56:10.817Z,79.29
2022-11-10T17:58:57.260Z,80.01
2022-11-10T18:01:45.135Z,79.43
2022-11-10T18:04:31.963Z,80.17
2022-11-10T18:07:18.639Z,80.15
2022-11-10T18:10:06.073Z,80.10
2022-11-10T18:12:52.508Z,80.71
2022-11-10T18:15:42.917Z,80.64
2022-11-10T18:18:30.959Z,80.49
2022-11-10T18:21:17.735Z,81.04
2022-11-10T18:24:04.427Z,81.04
2022-11-10T18:26:50.793Z,80.33
2022-11-10T18:29:37.629Z,80.64
2022-11-10T18:32:24.661Z,81.75
2022-11-10T18:35:12.394Z,80.78
2022-11-10T18:37:59.190Z,80.73
2022-11-10T18:40:46.075Z,82.23
2022-11-10T18:43:32.768Z,81.73
2022-11-10T18:46:19.411Z,81.22
2022-11-10T18:49:06.225Z,83.77
2022-11-10T18:51:54.214Z,83.12
2022-11-10T18:54:40.729Z,82.32
2022-11-10T18:57:27.231Z,82.90
2022-11-10T19:00:14.639Z,83.40
2022-11-10T19:03:01.081Z,84.09
2022-11-10T19:05:54.367Z,85.17
2022-11-10T19:08:46.823Z,83.63
2022-11-10T19:11:58.361Z,82.88
2022-11-10T19:14:45.033Z,82.83
2022-11-10T19:17:31.664Z,82.40
2022-11-10T19:20:18.215Z,82.81
2022-11-10T19:23:05.146Z,82.27
2022-11-10T19:26:01.899Z,83.39
2022-11-10T19:28:48.517Z,84.53
2022-11-10T19:31:35.098Z,84.02
2022-11-10T19:34:21.823Z,83.32
2022-11-10T19:37:08.689Z,83.32
2022-11-10T19:39:55.481Z,83.85
2022-11-10T19:42:43.693Z,83.68
2022-11-10T19:45:30.071Z,83.48
2022-11-10T19:48:16.843Z,83.64
2022-11-10T19:51:04.355Z,82.53
2022-11-10T19:54:22.564Z,83.02
2022-11-10T19:57:09.075Z,83.18
2022-11-10T19:59:57.310Z,83.11
2022-11-10T20:02:45.698Z,84.38
2022-11-10T20:05:32.750Z,84.58
2022-11-10T20:08:19.438Z,83.83
2022-11-10T20:11:07.734Z,83.63
2022-11-10T20:14:43.626Z,84.14
2022-11-10T20:17:31.444Z,83.29
2022-11-10T20:20:18.746Z,83.80
2022-11-10T20:23:06.371Z,83.92
2022-11-10T20:26:02.610Z,82.79
2022-11-10T20:28:49.598Z,83.51
2022-11-10T20:31:36.988Z,84.00
2022-11-10T20:34:26.037Z,83.24
2022-11-10T20:37:12.532Z,83.45
2022-11-10T20:39:59.049Z,83.55
2022-11-10T20:42:45.786Z,83.52
2022-11-10T20:45:32.307Z,82.79
2022-11-10T20:48:18.795Z,82.53
2022-11-10T20:51:11.237Z,83.09
2022-11-10T20:53:59.326Z,83.37
2022-11-10T20:56:45.706Z,82.79
2022-11-10T20:59:32.461Z,83.33
2022-11-10T21:02:18.836Z,83.68
2022-11-10T21:05:05.833Z,83.77
2022-11-10T21:07:53.951Z,83.38
2022-11-10T21:10:40.399Z,83.43
2022-11-10T21:13:27.670Z,83.39
2022-11-10T21:16:14.209Z,82.68
2022-11-10T21:19:01.328Z,82.88
2022-11-10T21:21:47.796Z,83.29
2022-11-10T21:24:36.030Z,83.89
2022-11-10T21:27:22.778Z,84.62
2022-11-10T21:30:22.518Z,84.30
2022-11-10T21:33:09.308Z,84.21
2022-11-10T21:35:55.691Z,84.68
2022-11-10T21:38:42.520Z,84.10
2022-11-10T21:41:30.637Z,83.93
2022-11-10T21:44:17.398Z,83.31
2022-11-10T21:47:04.402Z,84.37
2022-11-10T21:49:51.090Z,84.91
2022-11-10T21:52:37.803Z,85.46
2022-11-10T21:55:24.175Z,85.47
2022-11-10T21:58:12.309Z,84.84
2022-11-10T22:01:02.644Z,84.92
2022-11-10T22:03:49.014Z,84.02
2022-11-10T22:06:52.970Z,84.33
2022-11-10T22:09:56.998Z,84.34
2022-11-10T22:13:01.032Z,84.25
2022-11-10T22:16:21.450Z,84.28
2022-11-10T22:19:09.516Z,84.19
2022-11-10T22:21:59.549Z,84.49
2022-11-10T22:24:48.905Z,85.09
2022-11-10T22:27:35.411Z,85.15
2022-11-10T22:30:21.781Z,85.19
2022-11-10T22:33:24.051Z,84.87
2022-11-10T22:36:12.695Z,84.85
2022-11-10T22:39:03.343Z,84.73
2022-11-10T22:42:08.162Z,83.89
2022-11-10T22:44:54.637Z,84.02
2022-11-10T22:47:58.611Z,84.49
2022-11-10T22:50:54.547Z,83.96
2022-11-10T22:53:41.282Z,83.91
2022-11-10T22:56:28.597Z,84.02
2022-11-10T22:59:16.115Z,83.98
2022-11-10T23:02:02.937Z,84.60
2022-11-10T23:04:49.670Z,85.40
2022-11-10T23:07:37.667Z,86.00
2022-11-10T23:10:24.366Z,86.33
2022-11-10T23:13:11.135Z,86.91
2022-11-10T23:16:02.183Z,86.25
2022-11-10T23:18:49.992Z,86.41
2022-11-10T23:21:36.430Z,85.71
2022-11-10T23:24:25.111Z,86.04
2022-11-10T23:27:11.823Z,85.24
2022-11-10T23:29:58.424Z,84.91
2022-11-10T23:32:45.114Z,84.31
2022-11-10T23:35:32.835Z,85.14
2022-11-10T23:38:19.133Z,84.27
2022-11-10T23:41:08.208Z,83.75
2022-11-10T23:43:55.164Z,84.65
2022-11-10T23:46:41.993Z,83.88
2022-11-10T23:49:28.450Z,83.60
2022-11-10T23:52:14.871Z,83.35
2022-11-10T23:55:01.429Z,83.64
2022-11-10T23:57:49.102Z,84.53
